sensor_id;sensor_type;location;lat;lon;timestamp;temperature;humidity
46123;DHT22;31856;-35.404;149.120;2023-04-25T00:00:29;14.30;76.60
46123;DHT22;31856;-35.404;149.120;2023-04-25T00:02:59;14.40;76.60
46123;DHT22;31856;-35.404;149.120;2023-04-25T00:05:29;14.60;76.20
46123;DHT22;31856;-35.404;149.120;2023-04-25T00:07:59;14.70;75.80
46123;DHT22;31856;-35.404;149.120;2023-04-25T00:10:28;14.80;75.50
46123;DHT22;31856;-35.404;149.120;2023-04-25T00:12:58;15.00;75.00
46123;DHT22;31856;-35.404;149.120;2023-04-25T00:15:31;15.10;74.80
46123;DHT22;31856;-35.404;149.120;2023-04-25T00:18:00;15.20;74.00
46123;DHT22;31856;-35.404;149.120;2023-04-25T00:20:31;15.30;73.00
46123;DHT22;31856;-35.404;149.120;2023-04-25T00:23:00;15.40;72.90
46123;DHT22;31856;-35.404;149.120;2023-04-25T00:25:30;15.50;72.10
46123;DHT22;31856;-35.404;149.120;2023-04-25T00:28:00;15.60;71.30
46123;DHT22;31856;-35.404;149.120;2023-04-25T00:30:30;15.70;71.00
46123;DHT22;31856;-35.404;149.120;2023-04-25T00:32:59;15.80;70.70
46123;DHT22;31856;-35.404;149.120;2023-04-25T00:35:29;15.90;70.10
46123;DHT22;31856;-35.404;149.120;2023-04-25T00:37:58;15.90;69.80
46123;DHT22;31856;-35.404;149.120;2023-04-25T00:40:28;16.00;68.90
46123;DHT22;31856;-35.404;149.120;2023-04-25T00:42:58;16.10;68.40
46123;DHT22;31856;-35.404;149.120;2023-04-25T00:45:28;16.20;67.70
46123;DHT22;31856;-35.404;149.120;2023-04-25T00:47:58;16.30;67.70
46123;DHT22;31856;-35.404;149.120;2023-04-25T00:50:28;16.40;67.00
46123;DHT22;31856;-35.404;149.120;2023-04-25T00:52:59;16.50;66.70
46123;DHT22;31856;-35.404;149.120;2023-04-25T00:55:29;16.60;66.40
46123;DHT22;31856;-35.404;149.120;2023-04-25T00:58:00;16.80;65.60
46123;DHT22;31856;-35.404;149.120;2023-04-25T01:00:29;16.80;64.40
46123;DHT22;31856;-35.404;149.120;2023-04-25T01:03:00;16.90;64.40
46123;DHT22;31856;-35.404;149.120;2023-04-25T01:05:32;16.90;63.80
46123;DHT22;31856;-35.404;149.120;2023-04-25T01:08:02;17.00;63.40
46123;DHT22;31856;-35.404;149.120;2023-04-25T01:10:31;17.20;63.50
46123;DHT22;31856;-35.404;149.120;2023-04-25T01:13:01;17.30;63.30
46123;DHT22;31856;-35.404;149.120;2023-04-25T01:15:31;17.30;63.10
46123;DHT22;31856;-35.404;149.120;2023-04-25T01:18:00;17.30;63.20
46123;DHT22;31856;-35.404;149.120;2023-04-25T01:20:30;17.30;62.70
46123;DHT22;31856;-35.404;149.120;2023-04-25T01:23:01;17.50;62.90
46123;DHT22;31856;-35.404;149.120;2023-04-25T01:25:32;17.50;63.10
46123;DHT22;31856;-35.404;149.120;2023-04-25T01:28:02;17.70;62.40
46123;DHT22;31856;-35.404;149.120;2023-04-25T01:30:32;17.70;61.10
46123;DHT22;31856;-35.404;149.120;2023-04-25T01:33:01;17.80;61.10
46123;DHT22;31856;-35.404;149.120;2023-04-25T01:35:35;17.80;60.90
46123;DHT22;31856;-35.404;149.120;2023-04-25T01:38:04;18.00;61.10
46123;DHT22;31856;-35.404;149.120;2023-04-25T01:40:35;18.10;60.70
46123;DHT22;31856;-35.404;149.120;2023-04-25T01:43:09;18.10;60.50
46123;DHT22;31856;-35.404;149.120;2023-04-25T01:45:41;18.20;60.60
46123;DHT22;31856;-35.404;149.120;2023-04-25T01:48:12;18.20;60.00
46123;DHT22;31856;-35.404;149.120;2023-04-25T01:50:43;18.30;59.40
46123;DHT22;31856;-35.404;149.120;2023-04-25T01:53:13;18.40;60.20
46123;DHT22;31856;-35.404;149.120;2023-04-25T01:55:43;18.50;60.00
46123;DHT22;31856;-35.404;149.120;2023-04-25T01:58:13;18.60;59.20
46123;DHT22;31856;-35.404;149.120;2023-04-25T02:00:43;18.70;58.60
46123;DHT22;31856;-35.404;149.120;2023-04-25T02:03:13;18.80;59.00
46123;DHT22;31856;-35.404;149.120;2023-04-25T02:05:42;18.80;57.90
46123;DHT22;31856;-35.404;149.120;2023-04-25T02:08:12;18.80;57.50
46123;DHT22;31856;-35.404;149.120;2023-04-25T02:10:42;18.80;57.40
46123;DHT22;31856;-35.404;149.120;2023-04-25T02:13:13;18.90;57.80
46123;DHT22;31856;-35.404;149.120;2023-04-25T02:15:42;18.90;58.00
46123;DHT22;31856;-35.404;149.120;2023-04-25T02:18:12;19.00;57.90
46123;DHT22;31856;-35.404;149.120;2023-04-25T02:20:43;19.10;57.60
46123;DHT22;31856;-35.404;149.120;2023-04-25T02:23:12;19.30;56.60
46123;DHT22;31856;-35.404;149.120;2023-04-25T02:25:44;19.30;56.80
46123;DHT22;31856;-35.404;149.120;2023-04-25T02:28:13;19.30;56.00
46123;DHT22;31856;-35.404;149.120;2023-04-25T02:30:43;19.40;55.80
46123;DHT22;31856;-35.404;149.120;2023-04-25T02:33:13;19.40;55.00
46123;DHT22;31856;-35.404;149.120;2023-04-25T02:35:45;19.50;55.40
46123;DHT22;31856;-35.404;149.120;2023-04-25T02:38:15;19.60;53.80
46123;DHT22;31856;-35.404;149.120;2023-04-25T02:40:45;19.70;53.60
46123;DHT22;31856;-35.404;149.120;2023-04-25T02:43:14;19.70;52.40
46123;DHT22;31856;-35.404;149.120;2023-04-25T02:45:44;19.80;52.70
46123;DHT22;31856;-35.404;149.120;2023-04-25T02:48:14;19.80;52.80
46123;DHT22;31856;-35.404;149.120;2023-04-25T02:50:43;19.80;52.40
46123;DHT22;31856;-35.404;149.120;2023-04-25T02:53:14;19.90;51.70
46123;DHT22;31856;-35.404;149.120;2023-04-25T02:55:43;20.00;50.80
46123;DHT22;31856;-35.404;149.120;2023-04-25T02:58:13;20.10;51.00
46123;DHT22;31856;-35.404;149.120;2023-04-25T03:00:44;20.20;51.10
46123;DHT22;31856;-35.404;149.120;2023-04-25T03:03:14;20.20;49.80
46123;DHT22;31856;-35.404;149.120;2023-04-25T03:05:48;20.20;49.30
46123;DHT22;31856;-35.404;149.120;2023-04-25T03:08:18;20.30;49.50
46123;DHT22;31856;-35.404;149.120;2023-04-25T03:10:48;20.30;47.70
46123;DHT22;31856;-35.404;149.120;2023-04-25T03:13:19;20.30;48.50
46123;DHT22;31856;-35.404;149.120;2023-04-25T03:15:49;20.40;48.60
46123;DHT22;31856;-35.404;149.120;2023-04-25T03:18:19;20.50;47.20
46123;DHT22;31856;-35.404;149.120;2023-04-25T03:20:48;20.50;46.00
46123;DHT22;31856;-35.404;149.120;2023-04-25T03:23:18;20.50;45.80
46123;DHT22;31856;-35.404;149.120;2023-04-25T03:25:47;20.50;45.60
46123;DHT22;31856;-35.404;149.120;2023-04-25T03:28:17;20.60;47.30
46123;DHT22;31856;-35.404;149.120;2023-04-25T03:30:47;20.60;47.90
46123;DHT22;31856;-35.404;149.120;2023-04-25T03:33:16;20.60;47.70
46123;DHT22;31856;-35.404;149.120;2023-04-25T03:35:46;20.60;46.10
46123;DHT22;31856;-35.404;149.120;2023-04-25T03:38:16;20.60;46.70
46123;DHT22;31856;-35.404;149.120;2023-04-25T03:40:46;20.70;45.30
46123;DHT22;31856;-35.404;149.120;2023-04-25T03:43:17;20.70;45.80
46123;DHT22;31856;-35.404;149.120;2023-04-25T03:45:47;20.80;45.60
46123;DHT22;31856;-35.404;149.120;2023-04-25T03:48:16;20.80;45.10
46123;DHT22;31856;-35.404;149.120;2023-04-25T03:50:47;20.90;45.00
46123;DHT22;31856;-35.404;149.120;2023-04-25T03:53:16;20.90;44.60
46123;DHT22;31856;-35.404;149.120;2023-04-25T03:55:46;21.00;44.60
46123;DHT22;31856;-35.404;149.120;2023-04-25T03:58:16;21.00;43.50
46123;DHT22;31856;-35.404;149.120;2023-04-25T04:00:45;20.90;43.20
46123;DHT22;31856;-35.404;149.120;2023-04-25T04:03:14;20.90;43.30
46123;DHT22;31856;-35.404;149.120;2023-04-25T04:05:44;20.90;44.00
46123;DHT22;31856;-35.404;149.120;2023-04-25T04:08:15;20.90;44.80
46123;DHT22;31856;-35.404;149.120;2023-04-25T04:10:45;20.80;43.70
46123;DHT22;31856;-35.404;149.120;2023-04-25T04:13:14;20.80;44.20
46123;DHT22;31856;-35.404;149.120;2023-04-25T04:15:44;20.90;43.50
46123;DHT22;31856;-35.404;149.120;2023-04-25T04:18:14;20.90;44.20
46123;DHT22;31856;-35.404;149.120;2023-04-25T04:20:43;21.00;44.20
46123;DHT22;31856;-35.404;149.120;2023-04-25T04:23:14;21.00;44.20
46123;DHT22;31856;-35.404;149.120;2023-04-25T04:25:43;21.00;44.00
46123;DHT22;31856;-35.404;149.120;2023-04-25T04:28:13;21.10;43.60
46123;DHT22;31856;-35.404;149.120;2023-04-25T04:30:44;21.00;42.10
46123;DHT22;31856;-35.404;149.120;2023-04-25T04:33:15;21.10;42.20
46123;DHT22;31856;-35.404;149.120;2023-04-25T04:35:45;21.10;42.60
46123;DHT22;31856;-35.404;149.120;2023-04-25T04:38:15;21.30;43.10
46123;DHT22;31856;-35.404;149.120;2023-04-25T04:40:45;21.30;41.80
46123;DHT22;31856;-35.404;149.120;2023-04-25T04:43:15;21.30;41.90
46123;DHT22;31856;-35.404;149.120;2023-04-25T04:45:45;21.40;42.00
46123;DHT22;31856;-35.404;149.120;2023-04-25T04:48:16;21.40;42.00
46123;DHT22;31856;-35.404;149.120;2023-04-25T04:50:45;21.40;42.60
46123;DHT22;31856;-35.404;149.120;2023-04-25T04:53:15;21.50;42.30
46123;DHT22;31856;-35.404;149.120;2023-04-25T04:55:46;21.50;41.80
46123;DHT22;31856;-35.404;149.120;2023-04-25T04:58:16;21.50;41.80
46123;DHT22;31856;-35.404;149.120;2023-04-25T05:00:45;21.50;42.20
46123;DHT22;31856;-35.404;149.120;2023-04-25T05:03:16;21.60;41.80
46123;DHT22;31856;-35.404;149.120;2023-04-25T05:05:47;21.60;42.90
46123;DHT22;31856;-35.404;149.120;2023-04-25T05:08:16;21.70;42.30
46123;DHT22;31856;-35.404;149.120;2023-04-25T05:10:47;21.70;41.70
46123;DHT22;31856;-35.404;149.120;2023-04-25T05:13:17;21.60;41.50
46123;DHT22;31856;-35.404;149.120;2023-04-25T05:15:48;21.60;42.10
46123;DHT22;31856;-35.404;149.120;2023-04-25T05:18:17;21.60;41.20
46123;DHT22;31856;-35.404;149.120;2023-04-25T05:20:50;21.60;42.30
46123;DHT22;31856;-35.404;149.120;2023-04-25T05:23:19;21.70;41.80
46123;DHT22;31856;-35.404;149.120;2023-04-25T05:25:50;21.70;42.10
46123;DHT22;31856;-35.404;149.120;2023-04-25T05:28:20;21.70;42.80
46123;DHT22;31856;-35.404;149.120;2023-04-25T05:30:51;21.70;42.60
46123;DHT22;31856;-35.404;149.120;2023-04-25T05:33:22;21.70;43.40
46123;DHT22;31856;-35.404;149.120;2023-04-25T05:35:52;21.60;43.40
46123;DHT22;31856;-35.404;149.120;2023-04-25T05:38:22;21.60;44.10
46123;DHT22;31856;-35.404;149.120;2023-04-25T05:40:52;21.60;44.90
46123;DHT22;31856;-35.404;149.120;2023-04-25T05:43:24;21.50;44.90
46123;DHT22;31856;-35.404;149.120;2023-04-25T05:45:54;21.50;43.10
46123;DHT22;31856;-35.404;149.120;2023-04-25T05:48:24;21.50;43.10
46123;DHT22;31856;-35.404;149.120;2023-04-25T05:50:54;21.50;43.50
46123;DHT22;31856;-35.404;149.120;2023-04-25T05:53:25;21.40;43.30
46123;DHT22;31856;-35.404;149.120;2023-04-25T05:55:54;21.40;42.90
46123;DHT22;31856;-35.404;149.120;2023-04-25T05:58:24;21.30;42.70
46123;DHT22;31856;-35.404;149.120;2023-04-25T06:00:55;21.30;43.20
46123;DHT22;31856;-35.404;149.120;2023-04-25T06:03:25;21.30;42.80
46123;DHT22;31856;-35.404;149.120;2023-04-25T06:05:55;21.30;42.70
46123;DHT22;31856;-35.404;149.120;2023-04-25T06:08:25;21.30;42.80
46123;DHT22;31856;-35.404;149.120;2023-04-25T06:10:55;21.30;43.00
46123;DHT22;31856;-35.404;149.120;2023-04-25T06:13:25;21.30;42.90
46123;DHT22;31856;-35.404;149.120;2023-04-25T06:15:55;21.20;43.30
46123;DHT22;31856;-35.404;149.120;2023-04-25T06:18:24;21.10;43.20
46123;DHT22;31856;-35.404;149.120;2023-04-25T06:20:54;21.00;44.00
46123;DHT22;31856;-35.404;149.120;2023-04-25T06:23:23;20.90;44.80
46123;DHT22;31856;-35.404;149.120;2023-04-25T06:25:53;20.80;45.10
46123;DHT22;31856;-35.404;149.120;2023-04-25T06:28:23;20.80;45.10
46123;DHT22;31856;-35.404;149.120;2023-04-25T06:30:52;20.70;44.90
46123;DHT22;31856;-35.404;149.120;2023-04-25T06:33:22;20.70;45.40
46123;DHT22;31856;-35.404;149.120;2023-04-25T06:35:52;20.60;46.10
46123;DHT22;31856;-35.404;149.120;2023-04-25T06:38:22;20.50;46.20
46123;DHT22;31856;-35.404;149.120;2023-04-25T06:40:51;20.40;46.70
46123;DHT22;31856;-35.404;149.120;2023-04-25T06:43:21;20.30;47.20
46123;DHT22;31856;-35.404;149.120;2023-04-25T06:45:50;20.20;47.70
46123;DHT22;31856;-35.404;149.120;2023-04-25T06:48:20;20.20;48.10
46123;DHT22;31856;-35.404;149.120;2023-04-25T06:50:50;20.00;48.80
46123;DHT22;31856;-35.404;149.120;2023-04-25T06:53:19;19.90;49.70
46123;DHT22;31856;-35.404;149.120;2023-04-25T06:55:49;19.80;50.80
46123;DHT22;31856;-35.404;149.120;2023-04-25T06:58:18;19.70;52.10
46123;DHT22;31856;-35.404;149.120;2023-04-25T07:00:48;19.60;53.40
46123;DHT22;31856;-35.404;149.120;2023-04-25T07:03:17;19.40;53.90
46123;DHT22;31856;-35.404;149.120;2023-04-25T07:05:47;19.30;54.40
46123;DHT22;31856;-35.404;149.120;2023-04-25T07:08:16;19.20;54.30
46123;DHT22;31856;-35.404;149.120;2023-04-25T07:10:46;19.20;54.40
46123;DHT22;31856;-35.404;149.120;2023-04-25T07:13:16;19.00;54.80
46123;DHT22;31856;-35.404;149.120;2023-04-25T07:15:45;18.80;55.00
46123;DHT22;31856;-35.404;149.120;2023-04-25T07:18:16;18.80;55.00
46123;DHT22;31856;-35.404;149.120;2023-04-25T07:20:45;18.60;55.30
46123;DHT22;31856;-35.404;149.120;2023-04-25T07:23:15;18.50;56.00
46123;DHT22;31856;-35.404;149.120;2023-04-25T07:25:45;18.40;56.40
46123;DHT22;31856;-35.404;149.120;2023-04-25T07:28:14;18.30;57.00
46123;DHT22;31856;-35.404;149.120;2023-04-25T07:30:45;18.20;57.30
46123;DHT22;31856;-35.404;149.120;2023-04-25T07:33:15;18.10;57.70
46123;DHT22;31856;-35.404;149.120;2023-04-25T07:35:46;18.00;58.40
46123;DHT22;31856;-35.404;149.120;2023-04-25T07:38:16;18.00;58.80
46123;DHT22;31856;-35.404;149.120;2023-04-25T07:40:47;17.90;59.10
46123;DHT22;31856;-35.404;149.120;2023-04-25T07:43:16;17.80;59.30
46123;DHT22;31856;-35.404;149.120;2023-04-25T07:45:47;17.70;59.50
46123;DHT22;31856;-35.404;149.120;2023-04-25T07:48:16;17.60;59.70
46123;DHT22;31856;-35.404;149.120;2023-04-25T07:50:49;17.50;59.40
46123;DHT22;31856;-35.404;149.120;2023-04-25T07:53:19;17.40;59.50
46123;DHT22;31856;-35.404;149.120;2023-04-25T07:55:49;17.30;60.40
46123;DHT22;31856;-35.404;149.120;2023-04-25T07:58:19;17.30;61.10
46123;DHT22;31856;-35.404;149.120;2023-04-25T08:00:52;17.10;60.90
46123;DHT22;31856;-35.404;149.120;2023-04-25T08:03:21;17.00;60.30
46123;DHT22;31856;-35.404;149.120;2023-04-25T08:05:51;17.00;60.10
46123;DHT22;31856;-35.404;149.120;2023-04-25T08:08:21;16.90;60.40
46123;DHT22;31856;-35.404;149.120;2023-04-25T08:10:50;16.90;60.50
46123;DHT22;31856;-35.404;149.120;2023-04-25T08:13:19;16.90;61.00
46123;DHT22;31856;-35.404;149.120;2023-04-25T08:15:49;16.80;60.90
46123;DHT22;31856;-35.404;149.120;2023-04-25T08:18:19;16.80;61.00
46123;DHT22;31856;-35.404;149.120;2023-04-25T08:20:48;16.80;61.10
46123;DHT22;31856;-35.404;149.120;2023-04-25T08:23:18;16.80;61.20
46123;DHT22;31856;-35.404;149.120;2023-04-25T08:25:48;16.70;61.20
46123;DHT22;31856;-35.404;149.120;2023-04-25T08:28:18;16.60;61.40
46123;DHT22;31856;-35.404;149.120;2023-04-25T08:30:47;16.50;61.50
46123;DHT22;31856;-35.404;149.120;2023-04-25T08:33:17;16.50;61.50
46123;DHT22;31856;-35.404;149.120;2023-04-25T08:35:48;16.50;60.40
46123;DHT22;31856;-35.404;149.120;2023-04-25T08:38:17;16.40;59.30
46123;DHT22;31856;-35.404;149.120;2023-04-25T08:40:51;16.40;59.60
46123;DHT22;31856;-35.404;149.120;2023-04-25T08:43:21;16.40;59.30
46123;DHT22;31856;-35.404;149.120;2023-04-25T08:45:53;16.30;59.30
46123;DHT22;31856;-35.404;149.120;2023-04-25T08:48:23;16.30;59.00
46123;DHT22;31856;-35.404;149.120;2023-04-25T08:50:54;16.30;58.60
46123;DHT22;31856;-35.404;149.120;2023-04-25T08:53:26;16.30;58.70
46123;DHT22;31856;-35.404;149.120;2023-04-25T08:55:57;16.30;58.80
46123;DHT22;31856;-35.404;149.120;2023-04-25T08:58:28;16.20;58.70
46123;DHT22;31856;-35.404;149.120;2023-04-25T09:00:57;16.20;58.80
46123;DHT22;31856;-35.404;149.120;2023-04-25T09:03:31;16.20;58.80
46123;DHT22;31856;-35.404;149.120;2023-04-25T09:06:02;16.10;59.00
46123;DHT22;31856;-35.404;149.120;2023-04-25T09:08:32;16.10;59.20
46123;DHT22;31856;-35.404;149.120;2023-04-25T09:11:02;16.10;59.50
46123;DHT22;31856;-35.404;149.120;2023-04-25T09:13:31;16.00;59.50
46123;DHT22;31856;-35.404;149.120;2023-04-25T09:16:01;16.00;59.50
46123;DHT22;31856;-35.404;149.120;2023-04-25T09:18:34;16.00;59.70
46123;DHT22;31856;-35.404;149.120;2023-04-25T09:21:08;16.00;59.70
46123;DHT22;31856;-35.404;149.120;2023-04-25T09:23:43;15.90;60.00
46123;DHT22;31856;-35.404;149.120;2023-04-25T09:26:14;15.80;60.40
46123;DHT22;31856;-35.404;149.120;2023-04-25T09:28:46;15.80;60.40
46123;DHT22;31856;-35.404;149.120;2023-04-25T09:31:22;15.80;60.50
46123;DHT22;31856;-35.404;149.120;2023-04-25T09:34:01;15.70;60.40
46123;DHT22;31856;-35.404;149.120;2023-04-25T09:36:34;15.70;60.70
46123;DHT22;31856;-35.404;149.120;2023-04-25T09:39:03;15.70;60.80
46123;DHT22;31856;-35.404;149.120;2023-04-25T09:41:44;15.60;61.00
46123;DHT22;31856;-35.404;149.120;2023-04-25T09:44:14;15.60;61.10
46123;DHT22;31856;-35.404;149.120;2023-04-25T09:46:43;15.60;61.20
46123;DHT22;31856;-35.404;149.120;2023-04-25T09:49:14;15.50;61.40
46123;DHT22;31856;-35.404;149.120;2023-04-25T09:51:53;15.50;61.60
46123;DHT22;31856;-35.404;149.120;2023-04-25T09:54:26;15.50;62.00
46123;DHT22;31856;-35.404;149.120;2023-04-25T09:56:55;15.40;62.40
46123;DHT22;31856;-35.404;149.120;2023-04-25T09:59:26;15.40;62.60
46123;DHT22;31856;-35.404;149.120;2023-04-25T10:01:57;15.40;62.90
46123;DHT22;31856;-35.404;149.120;2023-04-25T10:04:27;15.30;63.10
46123;DHT22;31856;-35.404;149.120;2023-04-25T10:06:59;15.30;63.30
46123;DHT22;31856;-35.404;149.120;2023-04-25T10:09:29;15.30;63.70
46123;DHT22;31856;-35.404;149.120;2023-04-25T10:12:02;15.30;64.30
46123;DHT22;31856;-35.404;149.120;2023-04-25T10:14:33;15.30;64.60
46123;DHT22;31856;-35.404;149.120;2023-04-25T10:17:02;15.20;65.10
46123;DHT22;31856;-35.404;149.120;2023-04-25T10:19:32;15.20;65.00
46123;DHT22;31856;-35.404;149.120;2023-04-25T10:22:03;15.20;65.30
46123;DHT22;31856;-35.404;149.120;2023-04-25T10:24:37;15.20;65.40
46123;DHT22;31856;-35.404;149.120;2023-04-25T10:27:07;15.10;65.60
46123;DHT22;31856;-35.404;149.120;2023-04-25T10:29:38;15.10;65.90
46123;DHT22;31856;-35.404;149.120;2023-04-25T10:32:08;15.10;66.10
46123;DHT22;31856;-35.404;149.120;2023-04-25T10:34:43;15.00;66.40
46123;DHT22;31856;-35.404;149.120;2023-04-25T10:37:17;15.00;66.60
46123;DHT22;31856;-35.404;149.120;2023-04-25T10:39:49;15.00;66.70
46123;DHT22;31856;-35.404;149.120;2023-04-25T10:42:19;15.00;67.00
46123;DHT22;31856;-35.404;149.120;2023-04-25T10:45:04;15.00;67.10
46123;DHT22;31856;-35.404;149.120;2023-04-25T10:47:35;14.90;67.30
46123;DHT22;31856;-35.404;149.120;2023-04-25T10:50:06;14.80;67.30
46123;DHT22;31856;-35.404;149.120;2023-04-25T10:52:40;14.80;67.50
46123;DHT22;31856;-35.404;149.120;2023-04-25T10:55:11;14.80;67.50
46123;DHT22;31856;-35.404;149.120;2023-04-25T10:57:41;14.70;67.60
46123;DHT22;31856;-35.404;149.120;2023-04-25T11:00:16;14.60;67.80
46123;DHT22;31856;-35.404;149.120;2023-04-25T11:02:51;14.60;67.80
46123;DHT22;31856;-35.404;149.120;2023-04-25T11:05:31;14.50;67.90
46123;DHT22;31856;-35.404;149.120;2023-04-25T11:08:17;14.40;68.00
46123;DHT22;31856;-35.404;149.120;2023-04-25T11:10:51;14.40;68.50
46123;DHT22;31856;-35.404;149.120;2023-04-25T11:13:22;14.30;68.50
46123;DHT22;31856;-35.404;149.120;2023-04-25T11:15:56;14.20;68.60
46123;DHT22;31856;-35.404;149.120;2023-04-25T11:18:44;14.10;69.30
46123;DHT22;31856;-35.404;149.120;2023-04-25T11:21:16;14.10;69.10
46123;DHT22;31856;-35.404;149.120;2023-04-25T11:23:47;14.00;69.30
46123;DHT22;31856;-35.404;149.120;2023-04-25T11:26:18;14.00;69.20
46123;DHT22;31856;-35.404;149.120;2023-04-25T11:28:49;13.90;69.50
46123;DHT22;31856;-35.404;149.120;2023-04-25T11:31:21;13.80;70.10
46123;DHT22;31856;-35.404;149.120;2023-04-25T11:33:53;13.80;70.10
46123;DHT22;31856;-35.404;149.120;2023-04-25T11:36:23;13.80;70.00
46123;DHT22;31856;-35.404;149.120;2023-04-25T11:38:53;13.80;69.90
46123;DHT22;31856;-35.404;149.120;2023-04-25T11:41:25;13.70;70.30
46123;DHT22;31856;-35.404;149.120;2023-04-25T11:43:55;13.70;70.50
46123;DHT22;31856;-35.404;149.120;2023-04-25T11:46:24;13.70;70.60
46123;DHT22;31856;-35.404;149.120;2023-04-25T11:48:55;13.60;70.60
46123;DHT22;31856;-35.404;149.120;2023-04-25T11:51:25;13.50;71.10
46123;DHT22;31856;-35.404;149.120;2023-04-25T11:53:55;13.50;71.40
46123;DHT22;31856;-35.404;149.120;2023-04-25T11:56:24;13.40;71.10
46123;DHT22;31856;-35.404;149.120;2023-04-25T11:58:57;13.30;71.30
46123;DHT22;31856;-35.404;149.120;2023-04-25T12:04:09;13.30;71.40
46123;DHT22;31856;-35.404;149.120;2023-04-25T12:06:40;13.20;71.40
46123;DHT22;31856;-35.404;149.120;2023-04-25T12:09:11;13.10;72.10
46123;DHT22;31856;-35.404;149.120;2023-04-25T12:11:42;13.10;72.20
46123;DHT22;31856;-35.404;149.120;2023-04-25T12:14:12;13.00;72.20
46123;DHT22;31856;-35.404;149.120;2023-04-25T12:16:42;13.00;72.00
46123;DHT22;31856;-35.404;149.120;2023-04-25T12:19:16;13.00;72.20
46123;DHT22;31856;-35.404;149.120;2023-04-25T12:21:46;13.00;72.50
46123;DHT22;31856;-35.404;149.120;2023-04-25T12:24:25;12.90;72.60
46123;DHT22;31856;-35.404;149.120;2023-04-25T12:26:59;12.90;72.70
46123;DHT22;31856;-35.404;149.120;2023-04-25T12:29:30;12.80;73.20
46123;DHT22;31856;-35.404;149.120;2023-04-25T12:32:15;12.80;73.00
46123;DHT22;31856;-35.404;149.120;2023-04-25T12:34:45;12.80;73.30
46123;DHT22;31856;-35.404;149.120;2023-04-25T12:37:15;12.70;73.60
46123;DHT22;31856;-35.404;149.120;2023-04-25T12:39:44;12.70;73.60
46123;DHT22;31856;-35.404;149.120;2023-04-25T12:42:15;12.60;74.20
46123;DHT22;31856;-35.404;149.120;2023-04-25T12:44:45;12.50;74.10
46123;DHT22;31856;-35.404;149.120;2023-04-25T12:47:15;12.50;74.10
46123;DHT22;31856;-35.404;149.120;2023-04-25T12:49:45;12.50;73.60
46123;DHT22;31856;-35.404;149.120;2023-04-25T12:52:15;12.40;73.70
46123;DHT22;31856;-35.404;149.120;2023-04-25T12:54:44;12.40;74.00
46123;DHT22;31856;-35.404;149.120;2023-04-25T12:57:14;12.30;74.30
46123;DHT22;31856;-35.404;149.120;2023-04-25T12:59:44;12.30;74.40
46123;DHT22;31856;-35.404;149.120;2023-04-25T13:02:13;12.30;74.50
46123;DHT22;31856;-35.404;149.120;2023-04-25T13:04:44;12.30;74.40
46123;DHT22;31856;-35.404;149.120;2023-04-25T13:07:14;12.20;74.70
46123;DHT22;31856;-35.404;149.120;2023-04-25T13:09:45;12.20;74.70
46123;DHT22;31856;-35.404;149.120;2023-04-25T13:12:14;12.20;74.40
46123;DHT22;31856;-35.404;149.120;2023-04-25T13:14:44;12.10;74.50
46123;DHT22;31856;-35.404;149.120;2023-04-25T13:17:15;12.10;74.40
46123;DHT22;31856;-35.404;149.120;2023-04-25T13:19:45;12.00;74.50
46123;DHT22;31856;-35.404;149.120;2023-04-25T13:22:14;12.00;74.90
46123;DHT22;31856;-35.404;149.120;2023-04-25T13:24:45;12.00;74.80
46123;DHT22;31856;-35.404;149.120;2023-04-25T13:27:15;11.90;75.00
46123;DHT22;31856;-35.404;149.120;2023-04-25T13:29:45;11.80;75.30
46123;DHT22;31856;-35.404;149.120;2023-04-25T13:32:14;11.80;75.10
46123;DHT22;31856;-35.404;149.120;2023-04-25T13:34:44;11.80;75.10
46123;DHT22;31856;-35.404;149.120;2023-04-25T13:37:16;11.80;74.90
46123;DHT22;31856;-35.404;149.120;2023-04-25T13:39:46;11.70;75.30
46123;DHT22;31856;-35.404;149.120;2023-04-25T13:42:16;11.70;75.00
46123;DHT22;31856;-35.404;149.120;2023-04-25T13:44:46;11.60;75.60
46123;DHT22;31856;-35.404;149.120;2023-04-25T13:47:15;11.60;75.50
46123;DHT22;31856;-35.404;149.120;2023-04-25T13:49:45;11.60;75.50
46123;DHT22;31856;-35.404;149.120;2023-04-25T13:52:14;11.50;76.10
46123;DHT22;31856;-35.404;149.120;2023-04-25T13:54:44;11.60;75.80
46123;DHT22;31856;-35.404;149.120;2023-04-25T13:57:14;11.60;75.90
46123;DHT22;31856;-35.404;149.120;2023-04-25T13:59:44;11.50;75.60
46123;DHT22;31856;-35.404;149.120;2023-04-25T14:02:15;11.50;75.90
46123;DHT22;31856;-35.404;149.120;2023-04-25T14:04:44;11.40;75.80
46123;DHT22;31856;-35.404;149.120;2023-04-25T14:07:14;11.40;75.70
46123;DHT22;31856;-35.404;149.120;2023-04-25T14:09:48;11.40;75.40
46123;DHT22;31856;-35.404;149.120;2023-04-25T14:12:18;11.40;75.60
46123;DHT22;31856;-35.404;149.120;2023-04-25T14:14:47;11.30;76.20
46123;DHT22;31856;-35.404;149.120;2023-04-25T14:17:17;11.30;76.20
46123;DHT22;31856;-35.404;149.120;2023-04-25T14:19:49;11.30;76.20
46123;DHT22;31856;-35.404;149.120;2023-04-25T14:22:18;11.20;76.00
46123;DHT22;31856;-35.404;149.120;2023-04-25T14:24:48;11.20;76.10
46123;DHT22;31856;-35.404;149.120;2023-04-25T14:27:18;11.20;76.20
46123;DHT22;31856;-35.404;149.120;2023-04-25T14:29:47;11.10;76.30
46123;DHT22;31856;-35.404;149.120;2023-04-25T14:32:17;11.00;76.60
46123;DHT22;31856;-35.404;149.120;2023-04-25T14:34:46;11.00;76.30
46123;DHT22;31856;-35.404;149.120;2023-04-25T14:37:16;11.00;76.00
46123;DHT22;31856;-35.404;149.120;2023-04-25T14:39:46;11.00;76.10
46123;DHT22;31856;-35.404;149.120;2023-04-25T14:42:15;10.90;76.40
46123;DHT22;31856;-35.404;149.120;2023-04-25T14:44:45;10.90;76.50
46123;DHT22;31856;-35.404;149.120;2023-04-25T14:47:14;10.90;76.50
46123;DHT22;31856;-35.404;149.120;2023-04-25T14:49:44;10.80;76.20
46123;DHT22;31856;-35.404;149.120;2023-04-25T14:52:22;10.80;76.20
46123;DHT22;31856;-35.404;149.120;2023-04-25T14:54:52;10.70;76.50
46123;DHT22;31856;-35.404;149.120;2023-04-25T14:57:22;10.80;77.10
46123;DHT22;31856;-35.404;149.120;2023-04-25T14:59:52;10.80;77.10
46123;DHT22;31856;-35.404;149.120;2023-04-25T15:02:21;10.80;77.10
46123;DHT22;31856;-35.404;149.120;2023-04-25T15:04:51;10.70;77.10
46123;DHT22;31856;-35.404;149.120;2023-04-25T15:07:21;10.60;77.20
46123;DHT22;31856;-35.404;149.120;2023-04-25T15:09:51;10.60;76.90